Time;durP1;ratioP1;P1;durP2;ratioP2;P2;SDS_P1;SDS_P2;PMS_P1;PMS_P2;Temp;Humidity;BMP_temperature;BMP_pressure;BME280_temperature;BME280_humidity;BME280_pressure;Samples;Min_cycle;Max_cycle;Signal;HPM_P1;HPM_P2
2024/01/09 00:04:32;;;;;;;3.55;2.00;;;;;;;12.64;43.82;95988.34;6155623;23;20043;-27
2024/01/09 00:20:24;;;;;;;5.93;2.50;;;;;;;12.40;44.25;95975.28;6155354;23;20057;-26
2024/01/09 00:36:16;;;;;;;4.82;2.83;;;;;;;12.36;44.24;96007.31;6155061;23;20047;-26
2024/01/09 00:52:09;;;;;;;4.32;2.05;;;;;;;12.29;44.20;96036.72;6155150;23;20095;-26
2024/01/09 01:05:30;;;;;;;3.47;2.42;;;;;;;12.44;43.93;96045.88;6154760;23;20029;-27
2024/01/09 01:07:55;;;;;;;5.30;2.42;;;;;;;12.43;43.71;96036.94;6125372;23;20044;-26
2024/01/09 01:20:29;;;;;;;3.80;1.77;;;;;;;12.17;44.23;96049.22;6125872;23;20080;-26
2024/01/09 01:36:21;;;;;;;2.65;1.88;;;;;;;12.39;43.88;96087.97;6127057;23;20021;-26
2024/01/09 01:52:13;;;;;;;4.55;1.92;;;;;;;12.33;43.56;96072.72;6127157;23;20016;-26
2024/01/09 02:21:58;;;;;;;5.35;2.00;;;;;;;12.21;44.38;96066.16;6156143;23;20024;-27
2024/01/09 02:37:50;;;;;;;3.13;2.20;;;;;;;12.06;44.87;96043.41;6156393;23;20016;-26
2024/01/09 03:07:09;;;;;;;7.32;2.17;;;;;;;12.10;44.92;96068.50;6154934;23;20489;-26
2024/01/09 03:23:01;;;;;;;3.17;1.90;;;;;;;11.87;45.50;96081.34;6155700;23;20060;-27
2024/01/09 03:38:55;;;;;;;5.35;2.78;;;;;;;12.04;44.81;96100.16;6155865;23;20036;-27
2024/01/09 03:52:13;;;;;;;4.18;2.03;;;;;;;12.04;44.51;96100.94;6155273;23;20348;-27
2024/01/09 04:08:06;;;;;;;5.68;2.05;;;;;;;11.95;44.72;96108.28;6154374;23;20028;-27
2024/01/09 04:24:00;;;;;;;5.57;2.20;;;;;;;12.07;44.82;96126.47;6154957;23;20490;-27
2024/01/09 04:53:19;;;;;;;6.03;2.33;;;;;;;11.93;45.02;96138.59;6155072;23;20017;-27
2024/01/09 05:09:36;;;;;;;5.50;2.20;;;;;;;12.03;44.66;96134.00;6155801;23;20059;-27
2024/01/09 05:38:55;;;;;;;4.22;2.30;;;;;;;11.74;44.71;96180.41;6157014;23;20013;-26
2024/01/09 05:55:13;;;;;;;5.63;2.30;;;;;;;11.73;44.54;96189.75;6156623;23;20340;-27
2024/01/09 06:25:55;;;;;;;5.35;2.60;;;;;;;11.75;44.33;96230.78;6156382;23;20064;-27
2024/01/09 06:28:20;;;;;;;4.43;2.45;;;;;;;11.62;44.51;96230.81;6156499;23;20017;-26
2024/01/09 06:40:52;;;;;;;5.70;2.65;;;;;;;11.83;44.46;96251.13;6156449;23;20017;-27
2024/01/09 07:10:10;;;;;;;9.50;4.25;;;;;;;11.69;44.82;96284.16;6154647;23;20028;-27
2024/01/09 07:26:03;;;;;;;6.38;3.60;;;;;;;11.44;44.79;96315.56;6155603;23;20064;-26
2024/01/09 07:41:55;;;;;;;9.57;3.83;;;;;;;11.73;44.83;96348.06;6155963;23;20028;-26
2024/01/09 07:55:08;;;;;;;5.90;2.90;;;;;;;11.69;45.35;96352.84;6155404;23;20016;-27
2024/01/09 08:11:00;;;;;;;5.47;2.35;;;;;;;11.88;45.10;96373.63;6153899;23;20031;-26
2024/01/09 08:26:53;;;;;;;3.95;2.17;;;;;;;11.69;45.43;96390.13;6155444;23;20040;-27
2024/01/09 08:42:45;;;;;;;4.60;2.42;;;;;;;12.01;45.24;96410.91;6155395;23;20343;-27
2024/01/09 08:55:53;;;;;;;5.65;2.58;;;;;;;12.06;45.07;96427.44;6155457;23;20067;-27
2024/01/09 09:11:45;;;;;;;9.55;2.97;;;;;;;13.66;42.30;96439.09;6153145;23;20028;-27
2024/01/09 09:27:40;;;;;;;4.78;2.28;;;;;;;24.32;23.47;96457.88;6153800;23;20063;-27
2024/01/09 09:30:06;;;;;;;3.80;2.20;;;;;;;24.66;22.98;96461.06;6154119;23;20003;-27
2024/01/09 09:42:41;;;;;;;3.30;2.28;;;;;;;25.72;21.33;96465.38;6153790;23;20020;-27
2024/01/09 10:12:01;;;;;;;3.87;2.40;;;;;;;14.57;39.74;96476.94;6101121;23;1244081;-26
2024/01/09 10:28:43;;;;;;;4.72;2.65;;;;;;;13.69;43.07;96466.69;6156510;23;20031;-27
2024/01/09 10:41:59;;;;;;;5.63;2.30;;;;;;;13.28;44.04;96471.25;6156199;23;20106;-27
2024/01/09 10:57:51;;;;;;;5.28;2.65;;;;;;;13.01;45.09;96474.47;6156225;23;20125;-27
2024/01/09 11:13:47;;;;;;;5.63;2.47;;;;;;;13.08;46.05;96470.75;6154771;23;20446;-27
2024/01/09 11:29:49;;;;;;;6.80;3.03;;;;;;;13.04;46.91;96484.50;6155800;23;20369;-26
2024/01/09 11:45:44;;;;;;;5.38;2.65;;;;;;;13.10;46.95;96471.84;6155610;23;20028;-27
2024/01/09 12:15:05;;;;;;;4.97;2.58;;;;;;;13.26;47.14;96476.38;6152424;23;20064;-27
2024/01/09 12:31:01;;;;;;;4.95;2.40;;;;;;;13.22;47.19;96487.41;6155337;23;20020;-27
2024/01/09 12:46:54;;;;;;;4.85;2.83;;;;;;;13.25;47.26;96493.91;6155301;23;20045;-26
2024/01/09 12:59:59;;;;;;;4.13;2.22;;;;;;;13.16;47.70;96486.44;6155252;23;20017;-26
2024/01/09 13:15:51;;;;;;;3.80;2.45;;;;;;;13.01;48.00;96490.03;6153367;23;20217;-26
2024/01/09 13:31:45;;;;;;;7.07;5.22;;;;;;;13.15;47.92;96503.22;6157100;23;20046;-26
2024/01/09 13:47:36;;;;;;;7.97;5.30;;;;;;;13.20;47.61;96514.31;6156509;23;20412;-26
2024/01/09 14:00:43;;;;;;;10.95;6.88;;;;;;;13.24;47.53;96520.38;6156918;23;20040;-27
2024/01/09 14:16:35;;;;;;;16.92;10.27;;;;;;;13.12;47.88;96512.97;6155490;23;20029;-24
2024/01/09 14:32:28;;;;;;;16.60;10.60;;;;;;;13.32;47.51;96547.38;6156381;23;20020;-24
2024/01/09 14:48:22;;;;;;;8.07;5.30;;;;;;;13.11;47.95;96570.59;6156185;23;20012;-24
2024/01/09 15:01:24;;;;;;;8.82;5.05;;;;;;;12.89;48.44;96581.44;6154650;23;20101;-24
2024/01/09 15:17:29;;;;;;;17.00;12.50;;;;;;;13.02;47.96;96612.13;6154946;23;20053;-24
2024/01/09 15:33:21;;;;;;;23.02;15.80;;;;;;;13.10;47.32;96605.25;6155708;23;20071;-24
2024/01/09 15:49:14;;;;;;;10.65;7.25;;;;;;;12.84;47.08;96598.31;6155754;23;20056;-27
2024/01/09 16:02:00;;;;;;;8.20;5.85;;;;;;;12.79;46.55;96639.69;6155365;23;20029;-26
2024/01/09 16:17:52;;;;;;;39.80;22.35;;;;;;;12.72;46.81;96643.41;6154074;23;20513;-27
2024/01/09 16:33:44;;;;;;;10.07;7.45;;;;;;;12.67;46.47;96673.09;6155310;23;20454;-26
2024/01/09 16:49:35;;;;;;;18.05;11.52;;;;;;;12.68;45.53;96691.72;6154847;23;20028;-26
2024/01/09 17:02:43;;;;;;;8.77;4.80;;;;;;;12.74;45.93;96710.97;6157423;23;20465;-26
2024/01/09 17:18:42;;;;;;;8.55;5.75;;;;;;;12.64;46.28;96706.59;6155796;23;20363;-26
2024/01/09 17:34:34;;;;;;;38.90;21.67;;;;;;;12.59;45.75;96722.28;6156936;23;20020;-26
2024/01/09 17:37:00;;;;;;;62.72;31.40;;;;;;;12.67;45.60;96722.06;6157269;23;20005;-25
2024/01/09 17:49:30;;;;;;;31.00;18.58;;;;;;;12.45;45.68;96733.56;6156517;23;20331;-25
2024/01/09 17:51:55;;;;;;;26.42;14.77;;;;;;;12.60;45.42;96744.81;6156871;23;20006;-25
2024/01/09 18:04:25;;;;;;;26.52;13.70;;;;;;;12.37;45.11;96753.19;6156449;23;20028;-26
2024/01/09 18:20:18;;;;;;;11.88;7.60;;;;;;;12.34;45.08;96749.41;6155294;23;20056;-26
2024/01/09 18:33:41;;;;;;;14.85;8.52;;;;;;;12.49;44.65;96761.41;6156348;23;20012;-26
2024/01/09 18:49:35;;;;;;;25.48;12.90;;;;;;;12.26;45.35;96774.47;6155848;23;20064;-26
2024/01/09 19:05:28;;;;;;;13.32;8.13;;;;;;;12.25;45.17;96784.59;6156007;23;20016;-26
2024/01/09 19:35:13;;;;;;;9.55;5.38;;;;;;;12.21;45.17;96811.13;6155468;23;20020;-26
2024/01/09 19:51:16;;;;;;;7.80;4.43;;;;;;;12.43;44.62;96812.09;6155734;23;20497;-27
2024/01/09 20:04:41;;;;;;;8.32;4.68;;;;;;;12.19;44.98;96819.72;6155262;23;20012;-26
2024/01/09 20:20:33;;;;;;;11.27;5.18;;;;;;;12.26;44.28;96826.16;6154338;23;20053;-27
2024/01/09 20:36:25;;;;;;;6.22;3.33;;;;;;;11.98;44.87;96846.66;6154912;23;20351;-26
2024/01/09 20:52:21;;;;;;;7.35;3.40;;;;;;;12.14;44.77;96843.91;6155064;23;20096;-26
2024/01/09 21:05:23;;;;;;;7.18;4.05;;;;;;;12.16;45.01;96847.75;6094058;23;20073;-27
2024/01/09 21:21:14;;;;;;;13.27;6.57;;;;;;;12.24;43.90;96864.66;6092806;23;20077;-26
2024/01/09 21:37:06;;;;;;;9.27;5.05;;;;;;;12.19;44.24;96876.81;6155147;23;20064;-26
2024/01/09 21:53:00;;;;;;;7.60;3.90;;;;;;;12.14;44.72;96882.00;6156683;23;20071;-26
2024/01/09 22:06:02;;;;;;;8.32;3.92;;;;;;;12.20;44.44;96885.75;6156776;23;20489;-26
2024/01/09 22:21:54;;;;;;;7.50;3.63;;;;;;;12.18;44.84;96894.31;6154891;23;20454;-26
2024/01/09 22:37:46;;;;;;;7.03;4.97;;;;;;;12.11;45.50;96893.72;6156546;23;20013;-27
2024/01/09 22:53:43;;;;;;;13.32;5.93;;;;;;;12.09;45.53;96899.59;6156176;23;20019;-26
2024/01/09 23:06:41;;;;;;;11.25;3.97;;;;;;;12.21;47.73;96898.16;6156441;23;20017;-26
2024/01/09 23:22:28;;;;;;;6.10;3.13;;;;;;;11.99;49.38;96897.88;6154446;23;20133;-26
2024/01/09 23:38:20;;;;;;;6.22;2.85;;;;;;;12.08;49.76;96878.25;6155526;23;20042;-26
2024/01/09 23:54:12;;;;;;;4.45;2.75;;;;;;;12.04;49.56;96877.56;6155771;23;20084;-26
